createdAt,value
2023-04-08T00:08:31.806Z,41.56
2023-04-08T00:18:33.241Z,41.67
2023-04-08T00:28:34.812Z,41.64
2023-04-08T00:38:36.396Z,41.72
2023-04-08T00:48:37.818Z,41.65
2023-04-08T00:58:39.402Z,41.75
2023-04-08T01:08:41.166Z,41.68
2023-04-08T01:18:43.834Z,41.78
2023-04-08T01:28:45.377Z,41.75
2023-04-08T01:38:47.709Z,41.76
2023-04-08T01:48:49.464Z,41.73
2023-04-08T01:58:52.632Z,41.75
2023-04-08T02:08:54.950Z,41.77
2023-04-08T02:19:01.037Z,41.77
2023-04-08T02:29:03.425Z,41.81
2023-04-08T02:39:04.881Z,41.84
2023-04-08T02:49:06.730Z,41.91
2023-04-08T02:59:08.163Z,42.01
2023-04-08T03:09:09.587Z,42.00
2023-04-08T03:19:10.996Z,42.01
2023-04-08T03:29:12.462Z,42.05
2023-04-08T03:39:14.062Z,42.01
2023-04-08T03:49:15.645Z,42.13
2023-04-08T03:59:17.202Z,42.17
2023-04-08T04:09:18.826Z,42.14
2023-04-08T04:19:20.239Z,42.16
2023-04-08T04:29:21.651Z,41.59
2023-04-08T04:39:23.083Z,41.17
2023-04-08T04:49:24.525Z,40.88
2023-04-08T04:59:26.284Z,40.52
2023-04-08T05:09:27.702Z,40.39
2023-04-08T05:19:29.178Z,40.34
2023-04-08T05:29:30.943Z,40.30
2023-04-08T05:39:32.349Z,40.27
2023-04-08T05:49:34.244Z,40.35
2023-04-08T05:59:35.919Z,40.49
2023-04-08T06:09:37.971Z,40.64
2023-04-08T06:19:39.603Z,40.55
2023-04-08T06:29:42.880Z,40.17
2023-04-08T06:39:44.721Z,40.15
2023-04-08T06:49:46.563Z,39.98
2023-04-08T06:59:47.960Z,39.97
2023-04-08T07:09:49.359Z,40.10
2023-04-08T07:19:50.785Z,40.20
2023-04-08T07:29:55.998Z,40.25
2023-04-08T07:39:57.385Z,40.16
2023-04-08T07:49:58.793Z,40.18
2023-04-08T08:00:00.274Z,40.15
2023-04-08T08:10:01.766Z,40.33
2023-04-08T08:20:04.772Z,40.42
2023-04-08T08:30:06.902Z,40.17
2023-04-08T08:40:08.863Z,40.15
2023-04-08T08:50:10.456Z,40.13
2023-04-08T09:00:13.469Z,39.96
2023-04-08T09:10:15.016Z,39.99
2023-04-08T09:20:16.654Z,39.61
2023-04-08T09:30:18.241Z,39.46
2023-04-08T09:40:19.689Z,39.29
2023-04-08T09:50:26.798Z,39.24
2023-04-08T10:00:38.687Z,39.06
2023-04-08T10:10:40.791Z,38.68
2023-04-08T10:20:43.037Z,38.52
2023-04-08T10:31:11.298Z,38.45
2023-04-08T10:41:21.351Z,38.27
2023-04-08T10:51:23.792Z,38.29
2023-04-08T11:01:25.554Z,38.21
2023-04-08T11:11:29.546Z,38.11
2023-04-08T11:21:31.807Z,38.12
2023-04-08T11:31:33.558Z,37.87
2023-04-08T11:41:39.414Z,37.95
2023-04-08T11:51:57.744Z,37.63
2023-04-08T12:01:59.321Z,37.42
2023-04-08T12:12:01.294Z,37.54
2023-04-08T12:22:03.372Z,37.51
2023-04-08T12:32:05.508Z,37.40
2023-04-08T12:42:07.192Z,37.29
2023-04-08T12:52:09.061Z,37.14
2023-04-08T13:02:10.904Z,37.15
2023-04-08T13:12:12.325Z,36.99
2023-04-08T13:22:16.749Z,37.14
2023-04-08T13:32:18.329Z,36.92
2023-04-08T13:42:20.100Z,36.80
2023-04-08T13:52:21.694Z,36.77
2023-04-08T14:02:23.327Z,36.92
2023-04-08T14:12:24.898Z,37.08
2023-04-08T14:22:26.323Z,37.15
2023-04-08T14:32:27.781Z,37.29
2023-04-08T14:42:29.410Z,37.25
2023-04-08T14:52:32.128Z,37.49
2023-04-08T15:02:33.787Z,37.55
2023-04-08T15:12:36.288Z,37.60
2023-04-08T15:22:37.760Z,37.55
2023-04-08T15:32:39.321Z,37.73
2023-04-08T15:42:40.766Z,37.77
2023-04-08T15:52:42.369Z,37.92
2023-04-08T16:02:44.110Z,38.04
2023-04-08T16:12:46.209Z,38.07
2023-04-08T16:22:47.755Z,38.15
2023-04-08T16:32:49.400Z,38.35
2023-04-08T16:42:51.057Z,38.45
2023-04-08T16:52:52.987Z,38.52
2023-04-08T17:02:58.861Z,38.73
2023-04-08T17:13:00.437Z,38.88
2023-04-08T17:23:02.166Z,39.10
2023-04-08T17:33:03.808Z,39.21
2023-04-08T17:43:05.304Z,39.30
2023-04-08T17:53:07.009Z,39.44
2023-04-08T18:03:09.440Z,39.65
2023-04-08T18:13:11.903Z,39.69
2023-04-08T18:23:13.590Z,39.87
2023-04-08T18:33:15.285Z,40.07
2023-04-08T18:43:16.726Z,40.02
2023-04-08T18:53:18.182Z,40.18
2023-04-08T19:03:19.659Z,40.23
2023-04-08T19:13:22.938Z,40.24
2023-04-08T19:23:24.331Z,40.35
2023-04-08T19:33:27.884Z,40.43
2023-04-08T19:43:30.608Z,40.44
2023-04-08T19:53:32.170Z,40.59
2023-04-08T20:03:33.875Z,40.58
2023-04-08T20:13:35.501Z,40.51
2023-04-08T20:23:40.124Z,40.70
2023-04-08T20:33:45.273Z,40.73
2023-04-08T20:43:46.680Z,40.75
2023-04-08T20:53:48.295Z,40.71
2023-04-08T21:03:50.005Z,40.76
2023-04-08T21:13:51.565Z,40.77
2023-04-08T21:23:53.409Z,40.89
2023-04-08T21:33:55.108Z,40.93
2023-04-08T21:43:57.015Z,40.90
2023-04-08T21:53:58.930Z,40.88
2023-04-08T22:04:00.870Z,40.89
2023-04-08T22:14:02.564Z,41.01
2023-04-08T22:24:04.705Z,41.08
2023-04-08T22:34:06.266Z,41.07
2023-04-08T22:44:07.693Z,41.15
2023-04-08T22:54:09.715Z,41.14
2023-04-08T23:04:11.168Z,41.18
2023-04-08T23:14:12.713Z,41.19
2023-04-08T23:24:14.159Z,41.22
2023-04-08T23:34:15.796Z,41.33
2023-04-08T23:44:17.244Z,41.41
2023-04-08T23:54:18.832Z,41.40
